Antioch, CA

11:41 PM PDT on August 30, 2014 (GMT -0700)
Mountaire Meadows | Change Station
CLOSE
Current Station
Personal Weather Station
Location: Antioch, CA
Elevation: 128 ft
Nearby Weather Stations

Elev 128 ft 37.99 °N, 121.80 °W | Updated 2 seconds ago

Clear
Clear
78.4 °F
Feels Like 78 °F
N
4.0
Wind Variable Wind from WNW
Gusts 10.1 mph

Today
High -- | Low -- °F
--% Chance of Precip.
Yesterday
High -- | Low -- °F
Precip. -- in
6:35 AM 7:39 PM
Waxing Crescent, 28% visible
Pressure 29.81 in
Visibility 10.0 miles
Clouds Clear
Heat Index 78 °F
Dew Point 45 °F
Humidity 31%
Rainfall 5.43 in
Snow Depth Not available.
UV 0 out of 12
Pollen 7.70 out of 12
PM2.5 Good
Flu Activity Not available.
METAR KCCR 310553Z 19010KT 10SM CLR 21/13 A2985 RMK AO2 SLP093 T02110128 10317 20206 51010

More Conditions Fewer Conditions

Pressure 29.81 in
Visibility 10.0 miles
Clouds Clear
Heat Index 78 °F
Dew Point 45 °F
Humidity 31%
Rainfall 5.43 in
Snow Depth Not available.
UV 0 out of 12
Pollen 7.70 out of 12
PM2.5 Good
Flu Activity Not available.
METAR KCCR 310553Z 19010KT 10SM CLR 21/13 A2985 RMK AO2 SLP093 T02110128 10317 20206 51010

More Conditions Fewer Conditions

10-Day Weather Forecast

Almanac

Astronomy

Aug. 30, 2014 Rise Set
Actual Time 6:35 AM PDT 7:39 PM PDT
Civil Twilight 6:08 AM PDT 8:06 PM PDT
Nautical Twilight 5:36 AM PDT 8:38 PM PDT
Astronomical Twilight 5:02 AM PDT 9:11 PM PDT
Moon 11:22 AM PDT (8/30) 10:22 PM PDT (8/30)
Length of Visible Light 13h 58m
Length of Day
13h 04m
Tomorrow will be 2m 20s shorter.
Waxing Crescent, 28% of the Moon is Illuminated
Aug 31
Waxing Crescent
Sep 2
First Quarter
Sep 8
Full
Sep 15
Last Quarter
Sep 24
New

Community

WunderPhotos

Upload Photos

1,748,800 photos uploaded!

Nearby

Air Quality

  Air Quality AQ Index Pollutant
Yesterday Good
OZONE
Yesterday Good
PM2.5
Current Good
PM2.5
Saturday Good
OZONE
Sunday Good
OZONE
Monday Good
OZONE
Tuesday Good
OZONE
Wednesday Good
OZONE

Snow Depth

Station Depth Elevation
Blue Lakes 0 in 8000 ft
Forestdale Creek 0 in 8029 ft
Echo Peak 1 in 7800 ft
Rubicon #2 0 in 7500 ft
Squaw Valley 0 in 8200 ft

Earthquake Activity

City Distance Mag. Time & Date
Gonzales, California 98 miles 2.7 9:48 PM PDT
2014-08-30
Ridgemark, California 94 miles 3.4 4:32 PM PDT
2014-08-29
The Geysers, California 79 miles 2.7 2:53 PM PDT
2014-08-29
Ridgemark, California 93 miles 3.0 2:44 PM PDT
2014-08-29
Minimum magnitude displayed is 2.5.

Coastal Water Temperatures

Place Temperature
San Francisco, CA 66.0 °F
Richmond, CA 68.0 °F
Port Chicago, CA 70.0 °F

Nearby Weather Stations